Terminal Aerodrome Forecast
Issued by NWS Charleston, WV

Current Version | Previous Version | Graphics & Text | Print | Product List | Glossary On
Versions: 1 2 3 4 5 6 7 8 9 10 11 12 13 14 15 16 17 18 19 20 21
000
FTUS41 KRLX 220902 AAA
TAFHTS
TAF AMD
KHTS 220902Z 2209/2306 VRB03KT 2SM BR FEW035
     FM221200 VRB03KT 3SM BR FEW040
     FM221300 25006KT P6SM FEW200
     FM221800 25009KT P6SM BKN080
     FM230200 29004KT P6SM SCT060=

USA.gov is the U.S. government's official web portal to all federal, state and local government web resources and services.